Hornsby Bend, Texas
Current Conditions -  °F | °C
As of 9:53 AM on Monday 26 Jan 2015 (Local Time) from KAUS Reporting Station
Broken Clouds Broken Clouds  
Wind Chill: 57°   Ceiling: 25000
Heat Index: 57°   Visibility: 10mi
Dew Point: 37°   Wind: 6mph
Humidity: 47%   Direction: 340°NNW
Pressure: 30.27"   Gusts: NA
Location:  30.2291°N, 97.5973°W
Report Text: KAUS 261553Z 34005KT 10SM SCT200 BKN250 14/03 A3027 RMK AO2 SLP252 T01390028
Loading
Personal Weather Stations






























Interactive Weather Map New forecast layout! Learn more

10-Day Weather Forecast

Advertisements
Track Severe Weather on mobile